createdAt,value
2017-04-01T00:00:02.759Z,17.77
2017-04-01T00:00:24.495Z,17.71
2017-04-01T00:00:46.193Z,17.72
2017-04-01T00:01:07.895Z,17.67
2017-04-01T00:01:29.705Z,17.50
2017-04-01T00:01:51.433Z,17.61
2017-04-01T00:02:13.159Z,17.67
2017-04-01T00:02:34.904Z,17.55
2017-04-01T00:02:56.626Z,17.30
2017-04-01T00:03:18.325Z,17.29
2017-04-01T00:03:40.034Z,17.29
2017-04-01T00:04:01.727Z,17.38
2017-04-01T00:04:23.433Z,17.44
2017-04-01T00:04:54.695Z,17.42
2017-04-01T00:05:25.954Z,17.55
2017-04-01T00:05:47.686Z,17.61
2017-04-01T00:06:50.220Z,17.45
2017-04-01T00:07:11.944Z,17.44
2017-04-01T00:07:38.443Z,17.49
2017-04-01T00:08:00.203Z,17.50
2017-04-01T00:08:21.924Z,17.47
2017-04-01T00:08:48.443Z,17.46
2017-04-01T00:09:10.179Z,17.47
2017-04-01T00:09:31.894Z,17.53
2017-04-01T00:09:58.379Z,17.52
2017-04-01T00:10:20.101Z,17.57
2017-04-01T00:10:41.847Z,17.56
2017-04-01T00:11:08.376Z,17.54
2017-04-01T00:11:30.116Z,17.62
2017-04-01T00:11:51.849Z,17.59
2017-04-01T00:12:13.567Z,17.57
2017-04-01T00:12:35.362Z,17.57
2017-04-01T00:12:57.090Z,17.59
2017-04-01T00:13:18.809Z,17.56
2017-04-01T00:13:40.536Z,17.50
2017-04-01T00:14:02.290Z,17.50
2017-04-01T00:14:24.153Z,17.57
2017-04-01T00:15:00.176Z,17.60
2017-04-01T00:15:22.483Z,17.65
2017-04-01T00:15:44.215Z,17.67
2017-04-01T00:16:20.256Z,17.61
2017-04-01T00:16:45.176Z,17.59
2017-04-01T00:17:06.873Z,17.59
2017-04-01T00:17:42.907Z,17.67
2017-04-01T00:18:05.232Z,17.63
2017-04-01T00:18:41.261Z,17.45
2017-04-01T00:19:17.805Z,17.48
2017-04-01T00:19:40.062Z,17.52
2017-04-01T00:20:01.760Z,17.54
2017-04-01T00:20:23.506Z,17.57
2017-04-01T00:20:45.250Z,17.44
2017-04-01T00:21:06.988Z,17.41
2017-04-01T00:21:28.717Z,17.47
2017-04-01T00:21:50.432Z,17.49
2017-04-01T00:22:12.164Z,17.43
2017-04-01T00:22:33.881Z,17.41
2017-04-01T00:23:00.380Z,17.41
2017-04-01T00:23:22.135Z,17.43
2017-04-01T00:23:58.164Z,17.42
2017-04-01T00:24:20.487Z,17.38
2017-04-01T00:25:59.535Z,17.25
2017-04-01T00:26:21.277Z,17.14
2017-04-01T00:26:42.988Z,17.14
2017-04-01T00:27:04.702Z,17.29
2017-04-01T00:27:26.428Z,17.38
2017-04-01T00:27:48.138Z,17.35
2017-04-01T00:28:09.855Z,17.23
2017-04-01T00:29:12.352Z,17.24
2017-04-01T00:29:34.157Z,17.23
2017-04-01T00:29:55.909Z,17.23
2017-04-01T00:30:17.655Z,17.23
2017-04-01T00:30:39.397Z,17.28
2017-04-01T00:31:01.110Z,17.27
2017-04-01T00:31:22.832Z,17.27
2017-04-01T00:31:44.558Z,17.24
2017-04-01T00:32:06.282Z,17.25
2017-04-01T00:32:28.034Z,17.29
2017-04-01T00:32:49.778Z,17.26
2017-04-01T00:33:11.513Z,17.32
2017-04-01T00:33:33.275Z,17.18
2017-04-01T00:33:54.999Z,17.20
2017-04-01T00:34:16.736Z,17.22
2017-04-01T00:34:38.451Z,17.26
2017-04-01T00:35:00.192Z,17.22
2017-04-01T00:35:21.946Z,17.25
2017-04-01T00:35:43.696Z,17.25
2017-04-01T00:36:05.428Z,17.25
2017-04-01T00:36:27.159Z,17.28
2017-04-01T00:36:48.897Z,17.31
2017-04-01T00:37:10.606Z,17.37
2017-04-01T00:37:32.331Z,17.34
2017-04-01T00:37:54.050Z,17.28
2017-04-01T00:38:15.791Z,17.26
2017-04-01T00:38:37.565Z,17.26
2017-04-01T00:38:59.308Z,17.21
2017-04-01T00:39:21.051Z,17.23
2017-04-01T00:39:42.779Z,17.12
2017-04-01T00:40:04.514Z,16.92
2017-04-01T00:40:26.244Z,16.79
2017-04-01T00:40:47.954Z,16.79
2017-04-01T00:41:09.760Z,16.85
2017-04-01T00:41:31.489Z,16.92
2017-04-01T00:41:53.210Z,17.01
2017-04-01T00:42:14.932Z,16.97
2017-04-01T00:42:36.650Z,16.92
2017-04-01T00:42:58.388Z,16.95
2017-04-01T00:43:20.099Z,16.85
2017-04-01T00:43:46.596Z,16.91
2017-04-01T00:44:08.326Z,16.86
2017-04-01T00:44:30.081Z,16.94
2017-04-01T00:44:51.907Z,16.97
2017-04-01T00:45:13.659Z,17.07
2017-04-01T00:45:40.207Z,17.13
2017-04-01T00:46:02.239Z,17.12
2017-04-01T00:46:23.995Z,17.14
2017-04-01T00:46:45.796Z,17.13
2017-04-01T00:47:07.604Z,17.19
2017-04-01T00:47:29.377Z,17.15
2017-04-01T00:47:51.143Z,17.09
2017-04-01T00:48:12.924Z,17.07
2017-04-01T00:48:34.712Z,17.08
2017-04-01T00:48:56.483Z,17.12
2017-04-01T00:49:18.285Z,17.14
2017-04-01T00:49:40.086Z,17.07
2017-04-01T00:50:01.849Z,17.06
2017-04-01T00:50:23.642Z,17.05
2017-04-01T00:50:45.428Z,16.89
2017-04-01T00:51:07.279Z,16.82
2017-04-01T00:51:29.060Z,16.77
2017-04-01T00:52:31.586Z,16.79
2017-04-01T00:52:53.406Z,16.74
2017-04-01T00:53:15.146Z,16.82
2017-04-01T00:53:36.899Z,16.93
2017-04-01T00:53:58.717Z,16.97
2017-04-01T00:54:20.508Z,16.86
2017-04-01T00:54:42.374Z,16.81
2017-04-01T00:55:04.148Z,16.85
2017-04-01T00:55:26.098Z,16.78
2017-04-01T00:55:47.891Z,16.84
2017-04-01T00:56:14.330Z,16.71
2017-04-01T00:56:36.091Z,16.75
2017-04-01T00:56:57.906Z,16.75
2017-04-01T00:57:19.644Z,16.72
2017-04-01T00:57:41.509Z,16.73
2017-04-01T00:58:03.305Z,16.61
2017-04-01T00:58:25.057Z,16.64
2017-04-01T00:58:46.987Z,16.71
2017-04-01T00:59:08.740Z,16.71
2017-04-01T00:59:30.552Z,16.68
2017-04-01T00:59:52.408Z,16.70
2017-04-01T01:00:14.138Z,16.78
2017-04-01T01:00:35.875Z,16.80
2017-04-01T01:00:57.617Z,16.78
2017-04-01T01:01:19.321Z,16.82
2017-04-01T01:01:41.087Z,16.92
2017-04-01T01:02:02.768Z,16.93
2017-04-01T01:02:24.476Z,17.01
2017-04-01T01:02:46.414Z,17.05
2017-04-01T01:03:08.133Z,16.91
2017-04-01T01:03:29.820Z,16.93
2017-04-01T01:03:51.597Z,17.01
2017-04-01T01:04:13.328Z,16.89
2017-04-01T01:04:39.844Z,16.74
2017-04-01T01:05:01.603Z,16.74
2017-04-01T01:05:23.501Z,16.79
2017-04-01T01:05:45.216Z,16.76
2017-04-01T01:06:06.971Z,16.69
2017-04-01T01:06:28.758Z,16.54
2017-04-01T01:06:50.486Z,16.50
2017-04-01T01:07:14.813Z,16.35
2017-04-01T01:07:36.526Z,16.40
2017-04-01T01:07:58.318Z,16.46
2017-04-01T01:08:20.008Z,16.46
2017-04-01T01:08:41.784Z,16.48
2017-04-01T01:09:03.555Z,16.59
2017-04-01T01:09:25.256Z,16.65
2017-04-01T01:09:46.996Z,16.56
2017-04-01T01:10:08.778Z,16.57
2017-04-01T01:10:30.623Z,16.54
2017-04-01T01:10:52.385Z,16.59
2017-04-01T01:11:14.142Z,16.72
2017-04-01T01:11:35.928Z,16.75
2017-04-01T01:11:57.702Z,16.73
2017-04-01T01:12:19.537Z,16.75
2017-04-01T01:12:41.309Z,16.79
2017-04-01T01:13:03.044Z,16.73
2017-04-01T01:13:24.869Z,16.52
2017-04-01T01:13:46.685Z,16.54
2017-04-01T01:14:08.480Z,16.56
2017-04-01T01:14:30.293Z,16.56
2017-04-01T01:14:52.064Z,16.45
2017-04-01T01:15:13.883Z,16.35
2017-04-01T01:15:35.653Z,16.36
2017-04-01T01:15:57.505Z,16.47
2017-04-01T01:16:19.333Z,16.51
2017-04-01T01:17:07.643Z,16.73
2017-04-01T01:17:29.418Z,16.78
2017-04-01T01:17:51.265Z,16.78
2017-04-01T01:18:12.974Z,16.79
2017-04-01T01:18:34.697Z,16.83
2017-04-01T01:19:01.196Z,16.85
2017-04-01T01:19:23.012Z,16.88
2017-04-01T01:19:44.775Z,16.97
2017-04-01T01:20:06.630Z,17.00
2017-04-01T01:20:33.198Z,17.02
2017-04-01T01:20:55.038Z,17.03
2017-04-01T01:21:16.900Z,16.99
2017-04-01T01:21:38.603Z,16.94
2017-04-01T01:22:00.336Z,16.98
2017-04-01T01:23:52.273Z,17.05
2017-04-01T01:24:14.144Z,17.08
2017-04-01T01:24:35.865Z,17.12
2017-04-01T01:24:57.649Z,17.09
2017-04-01T01:25:19.423Z,17.07
2017-04-01T01:25:41.268Z,17.10
2017-04-01T01:26:02.962Z,17.11
2017-04-01T01:26:24.832Z,17.01
2017-04-01T01:26:46.584Z,17.12
2017-04-01T01:27:13.224Z,17.16
2017-04-01T01:27:35.035Z,17.17
2017-04-01T01:27:56.784Z,17.07
2017-04-01T01:29:01.111Z,16.88
2017-04-01T01:29:23.067Z,16.86
2017-04-01T01:29:44.817Z,16.92
2017-04-01T01:30:06.598Z,16.91
2017-04-01T01:30:28.482Z,16.84
2017-04-01T01:30:50.278Z,16.73
2017-04-01T01:31:12.215Z,16.81
2017-04-01T01:31:34.044Z,16.89
2017-04-01T01:31:55.972Z,16.99
2017-04-01T01:32:17.853Z,17.03
2017-04-01T01:32:39.561Z,17.06
2017-04-01T01:33:01.419Z,16.96
2017-04-01T01:33:23.160Z,17.05
2017-04-01T01:33:44.883Z,17.02
2017-04-01T01:34:06.631Z,17.06
2017-04-01T01:34:28.418Z,17.10
2017-04-01T01:34:50.220Z,17.16
2017-04-01T01:35:11.961Z,17.14
2017-04-01T01:35:33.827Z,17.15
2017-04-01T01:35:55.813Z,17.09
2017-04-01T01:37:00.743Z,17.05
2017-04-01T01:37:22.541Z,16.98
2017-04-01T01:37:44.268Z,16.88
2017-04-01T01:38:06.027Z,16.95
2017-04-01T01:38:27.757Z,16.88
2017-04-01T01:38:49.505Z,16.81
2017-04-01T01:39:11.297Z,16.85
2017-04-01T01:39:33.075Z,16.79
2017-04-01T01:39:54.840Z,16.94
2017-04-01T01:40:44.276Z,16.75
2017-04-01T01:41:06.419Z,16.82
2017-04-01T01:41:28.173Z,16.86
2017-04-01T01:41:49.976Z,16.76
2017-04-01T01:42:38.444Z,16.87
2017-04-01T01:43:00.186Z,16.94
2017-04-01T01:43:21.982Z,16.95
2017-04-01T01:43:43.725Z,16.92
2017-04-01T01:44:05.529Z,16.90
2017-04-01T01:44:27.345Z,16.85
2017-04-01T01:44:49.159Z,16.82
2017-04-01T01:45:15.766Z,16.84
2017-04-01T01:45:37.619Z,16.79
2017-04-01T01:45:59.450Z,16.78
2017-04-01T01:46:21.196Z,16.88
2017-04-01T01:46:42.905Z,16.95
2017-04-01T01:47:04.665Z,16.98
2017-04-01T01:47:26.388Z,17.05
2017-04-01T01:47:52.784Z,17.03
2017-04-01T01:48:14.504Z,17.03
2017-04-01T01:48:36.230Z,17.02
2017-04-01T01:48:58.130Z,17.04
2017-04-01T01:49:19.933Z,17.01
2017-04-01T01:49:41.719Z,17.04
2017-04-01T01:50:03.482Z,17.07
2017-04-01T01:50:25.210Z,17.10
2017-04-01T01:50:46.992Z,17.13
2017-04-01T01:51:08.775Z,17.12
2017-04-01T01:51:30.528Z,17.12
2017-04-01T01:51:52.296Z,16.95
2017-04-01T01:52:14.112Z,16.86
2017-04-01T01:52:36.015Z,16.89
2017-04-01T01:52:57.763Z,16.91
2017-04-01T01:53:19.489Z,16.87
2017-04-01T01:53:41.281Z,16.87
2017-04-01T01:54:03.000Z,16.88
2017-04-01T01:54:24.702Z,16.84
2017-04-01T01:54:46.456Z,16.86
2017-04-01T01:55:08.151Z,16.85
2017-04-01T01:55:29.930Z,16.77
2017-04-01T01:55:51.648Z,16.72
2017-04-01T01:56:13.403Z,16.68
2017-04-01T01:56:49.478Z,16.82
2017-04-01T01:57:11.758Z,16.70
2017-04-01T01:57:33.474Z,16.75
2017-04-01T01:57:55.173Z,16.79
2017-04-01T01:58:16.865Z,16.54
2017-04-01T01:58:38.588Z,16.51
2017-04-01T01:59:00.310Z,16.58
2017-04-01T01:59:22.034Z,16.67
2017-04-01T01:59:43.761Z,16.58
2017-04-01T02:00:05.479Z,16.55
2017-04-01T02:00:27.197Z,16.48
2017-04-01T02:00:48.932Z,16.54
2017-04-01T02:01:10.667Z,16.68
2017-04-01T02:01:32.381Z,16.71
2017-04-01T02:01:54.118Z,16.75
2017-04-01T02:02:15.839Z,16.74
2017-04-01T02:02:37.568Z,16.71
2017-04-01T02:02:59.282Z,16.81
2017-04-01T02:03:21.015Z,16.78
2017-04-01T02:03:42.820Z,16.82
2017-04-01T02:04:04.547Z,16.90
2017-04-01T02:04:26.274Z,16.95
2017-04-01T02:04:48.006Z,17.02
2017-04-01T02:05:09.705Z,17.04
2017-04-01T02:05:31.431Z,17.10
2017-04-01T02:05:53.139Z,17.08
2017-04-01T02:06:29.166Z,17.08
2017-04-01T02:06:56.239Z,17.11
2017-04-01T02:07:27.487Z,17.07
2017-04-01T02:07:49.237Z,16.99
2017-04-01T02:08:10.943Z,17.00
2017-04-01T02:08:32.668Z,17.08
2017-04-01T02:09:35.160Z,17.21
2017-04-01T02:09:56.855Z,17.22
2017-04-01T02:10:18.591Z,17.14
2017-04-01T02:10:40.313Z,16.83
2017-04-01T02:11:02.031Z,16.79
2017-04-01T02:11:23.808Z,16.92
2017-04-01T02:11:45.574Z,16.83
2017-04-01T02:12:07.319Z,16.67
2017-04-01T02:12:33.827Z,16.74
2017-04-01T02:12:55.570Z,16.81
2017-04-01T02:13:17.298Z,16.86
2017-04-01T02:13:39.028Z,16.89
2017-04-01T02:14:00.735Z,16.91
2017-04-01T02:14:22.458Z,16.93
2017-04-01T02:14:44.195Z,16.88
2017-04-01T02:15:06.000Z,16.82
2017-04-01T02:15:27.722Z,16.89
2017-04-01T02:15:49.492Z,16.93
2017-04-01T02:16:11.246Z,17.00
2017-04-01T02:16:32.998Z,17.01
2017-04-01T02:16:54.751Z,17.05
2017-04-01T02:17:16.458Z,17.08
2017-04-01T02:17:38.181Z,17.14
2017-04-01T02:17:59.916Z,17.07
2017-04-01T02:18:21.635Z,17.10
2017-04-01T02:18:43.321Z,17.01
2017-04-01T02:19:05.025Z,16.71
2017-04-01T02:19:26.738Z,16.54
2017-04-01T02:19:48.443Z,16.60
2017-04-01T02:20:10.170Z,16.66
2017-04-01T02:20:31.862Z,16.74
2017-04-01T02:20:53.564Z,16.72
2017-04-01T02:21:24.826Z,16.59
2017-04-01T02:21:46.581Z,16.59
2017-04-01T02:22:08.365Z,16.65
2017-04-01T02:22:30.101Z,16.70
2017-04-01T02:22:51.868Z,16.76
2017-04-01T02:23:13.622Z,16.76
2017-04-01T02:23:35.381Z,16.83
2017-04-01T02:23:57.116Z,16.81
2017-04-01T02:24:18.841Z,16.76
2017-04-01T02:24:40.579Z,16.73
2017-04-01T02:25:43.128Z,16.67
2017-04-01T02:26:50.421Z,16.63
2017-04-01T02:27:12.178Z,16.68
2017-04-01T02:28:14.670Z,16.65
2017-04-01T02:28:36.387Z,16.69
2017-04-01T02:28:58.094Z,16.76
2017-04-01T02:29:19.812Z,16.72
2017-04-01T02:29:41.536Z,16.63
2017-04-01T02:30:03.255Z,16.65
2017-04-01T02:30:24.968Z,16.66
2017-04-01T02:30:46.694Z,16.71
2017-04-01T02:31:08.473Z,16.61
2017-04-01T02:31:39.758Z,16.55
2017-04-01T02:32:01.500Z,16.50
2017-04-01T02:32:27.990Z,16.53
2017-04-01T02:32:49.721Z,16.59
2017-04-01T02:33:16.208Z,16.69
2017-04-01T02:33:37.951Z,16.68
2017-04-01T02:34:04.449Z,16.71
2017-04-01T02:34:26.193Z,16.75
2017-04-01T02:34:52.682Z,16.78
2017-04-01T02:35:14.404Z,16.81
2017-04-01T02:35:40.881Z,16.78
2017-04-01T02:36:43.420Z,16.58
2017-04-01T02:37:14.673Z,16.64
2017-04-01T02:37:50.711Z,16.77
2017-04-01T02:38:12.977Z,16.77
2017-04-01T02:38:34.695Z,16.76
2017-04-01T02:38:56.441Z,16.67
2017-04-01T02:39:18.162Z,16.65
2017-04-01T02:39:39.890Z,16.59
2017-04-01T02:40:09.340Z,16.49
2017-04-01T02:40:31.059Z,16.55
2017-04-01T02:40:52.833Z,16.50
2017-04-01T02:41:14.556Z,16.55
2017-04-01T02:41:36.299Z,16.56
2017-04-01T02:41:58.038Z,16.63
2017-04-01T02:42:19.772Z,16.64
2017-04-01T02:42:41.504Z,16.59
2017-04-01T02:43:03.230Z,16.46
2017-04-01T02:43:24.945Z,16.45
2017-04-01T02:43:46.667Z,16.46
2017-04-01T02:44:08.377Z,16.53
2017-04-01T02:44:30.122Z,16.58
2017-04-01T02:44:51.860Z,16.59
2017-04-01T02:45:13.628Z,16.56
2017-04-01T02:45:35.353Z,16.58
2017-04-01T02:45:57.131Z,16.61
2017-04-01T02:46:18.822Z,16.64
2017-04-01T02:46:40.594Z,16.50
2017-04-01T02:47:02.338Z,16.52
2017-04-01T02:47:24.079Z,16.54
2017-04-01T02:47:45.824Z,16.56
2017-04-01T02:48:07.564Z,16.61
2017-04-01T02:48:38.824Z,16.65
2017-04-01T02:49:00.532Z,16.68
2017-04-01T02:49:31.803Z,16.59
2017-04-01T02:49:53.521Z,16.61
2017-04-01T02:50:24.792Z,16.53
2017-04-01T02:50:46.503Z,16.53
2017-04-01T02:51:49.026Z,16.54
2017-04-01T02:52:10.779Z,16.56
2017-04-01T02:52:42.049Z,16.49
2017-04-01T02:53:03.774Z,16.37
2017-04-01T02:53:25.510Z,16.44
2017-04-01T02:53:52.006Z,16.44
2017-04-01T02:54:13.734Z,16.43
2017-04-01T02:54:35.478Z,16.34
2017-04-01T02:54:57.343Z,16.13
2017-04-01T02:55:19.115Z,16.17
2017-04-01T02:55:40.829Z,16.11
2017-04-01T02:56:02.526Z,16.13
2017-04-01T02:56:24.238Z,16.13
2017-04-01T02:56:45.947Z,16.23
2017-04-01T02:57:07.655Z,16.34
2017-04-01T02:57:43.684Z,16.43
2017-04-01T02:58:06.013Z,16.48
2017-04-01T02:59:08.542Z,16.57
2017-04-01T02:59:35.049Z,16.50
2017-04-01T03:00:11.075Z,16.35
2017-04-01T03:00:47.978Z,16.39
2017-04-01T03:01:10.069Z,16.47
2017-04-01T03:02:17.374Z,16.48
2017-04-01T03:02:39.135Z,16.47
2017-04-01T03:03:00.899Z,16.47
2017-04-01T03:03:22.657Z,16.46
2017-04-01T03:03:44.378Z,16.45
2017-04-01T03:04:06.082Z,16.51
2017-04-01T03:04:27.805Z,16.56
2017-04-01T03:04:49.524Z,16.59
2017-04-01T03:05:11.243Z,16.57
2017-04-01T03:05:32.979Z,16.57
2017-04-01T03:05:54.714Z,16.57
2017-04-01T03:06:16.436Z,16.38
2017-04-01T03:06:38.154Z,16.16
2017-04-01T03:06:59.885Z,16.32
2017-04-01T03:07:21.609Z,16.37
2017-04-01T03:07:43.340Z,16.41
2017-04-01T03:08:05.081Z,16.37
2017-04-01T03:08:26.906Z,16.33
2017-04-01T03:08:48.667Z,16.44
2017-04-01T03:09:10.425Z,16.46
2017-04-01T03:09:32.135Z,16.39
2017-04-01T03:09:53.878Z,16.29
2017-04-01T03:10:15.694Z,16.36
2017-04-01T03:10:37.423Z,16.27
2017-04-01T03:11:06.555Z,16.27
2017-04-01T03:11:28.383Z,16.32
2017-04-01T03:11:50.165Z,16.24
2017-04-01T03:12:11.959Z,16.17
2017-04-01T03:12:33.719Z,16.17
2017-04-01T03:12:55.490Z,16.15
2017-04-01T03:13:17.284Z,16.17
2017-04-01T03:13:39.046Z,16.10
2017-04-01T03:14:00.904Z,16.19
2017-04-01T03:14:22.679Z,16.29
2017-04-01T03:14:44.472Z,16.35
2017-04-01T03:15:46.970Z,16.37
2017-04-01T03:16:08.722Z,16.30
2017-04-01T03:16:30.493Z,16.26
2017-04-01T03:16:54.979Z,16.32
2017-04-01T03:17:16.790Z,16.35
2017-04-01T03:17:52.828Z,16.22
2017-04-01T03:18:20.089Z,16.26
2017-04-01T03:18:41.873Z,16.13
2017-04-01T03:19:03.705Z,16.07
2017-04-01T03:19:25.412Z,16.02
2017-04-01T03:19:47.189Z,16.05
2017-04-01T03:20:09.004Z,16.12
2017-04-01T03:20:30.809Z,16.15
2017-04-01T03:20:52.614Z,16.16
2017-04-01T03:21:14.436Z,16.15
2017-04-01T03:21:36.271Z,16.23
2017-04-01T03:21:58.065Z,16.23
2017-04-01T03:22:19.924Z,16.15
2017-04-01T03:22:41.715Z,16.04
2017-04-01T03:23:10.657Z,16.15
2017-04-01T03:23:32.387Z,16.19
2017-04-01T03:23:54.110Z,16.23
2017-04-01T03:24:15.811Z,16.29
2017-04-01T03:24:37.582Z,16.32
2017-04-01T03:24:59.450Z,16.35
2017-04-01T03:25:21.206Z,16.34
2017-04-01T03:25:42.901Z,16.28
2017-04-01T03:26:04.630Z,16.25
2017-04-01T03:26:26.366Z,16.29
2017-04-01T03:26:48.057Z,15.99
2017-04-01T03:27:09.828Z,15.96
2017-04-01T03:27:31.598Z,16.00
2017-04-01T03:27:53.319Z,15.98
2017-04-01T03:28:15.077Z,15.94
2017-04-01T03:28:36.772Z,15.98
2017-04-01T03:28:58.481Z,16.03
2017-04-01T03:29:20.179Z,15.85
2017-04-01T03:29:41.868Z,15.72
2017-04-01T03:30:03.567Z,15.64
2017-04-01T03:30:25.322Z,15.64
2017-04-01T03:30:47.049Z,15.77
2017-04-01T03:31:08.739Z,15.81
2017-04-01T03:31:30.566Z,15.84
2017-04-01T03:31:52.318Z,15.95
2017-04-01T03:32:14.044Z,15.90
2017-04-01T03:32:35.808Z,15.87
2017-04-01T03:32:57.525Z,15.86
2017-04-01T03:33:19.300Z,15.94
2017-04-01T03:33:41.166Z,16.09
2017-04-01T03:34:02.927Z,16.08
2017-04-01T03:34:24.703Z,16.15
2017-04-01T03:34:46.465Z,16.12
2017-04-01T03:35:08.272Z,16.19
2017-04-01T03:35:29.999Z,16.18
2017-04-01T03:35:51.782Z,16.17
2017-04-01T03:36:13.543Z,16.21
2017-04-01T03:37:16.034Z,16.21
2017-04-01T03:37:37.793Z,16.13
2017-04-01T03:37:59.497Z,16.11
2017-04-01T03:38:21.235Z,16.16
2017-04-01T03:38:42.931Z,16.22
2017-04-01T03:39:04.707Z,16.16
2017-04-01T03:39:26.530Z,16.14
2017-04-01T03:39:48.309Z,16.15
2017-04-01T03:40:10.063Z,16.21
2017-04-01T03:40:31.788Z,16.17
2017-04-01T03:40:53.551Z,16.21
2017-04-01T03:41:15.295Z,16.17
2017-04-01T03:41:37.034Z,16.26
2017-04-01T03:41:58.801Z,16.33
2017-04-01T03:42:20.621Z,16.28
2017-04-01T03:42:42.413Z,16.19
2017-04-01T03:43:04.234Z,16.17
2017-04-01T03:43:26.075Z,16.10
2017-04-01T03:43:47.820Z,16.09
2017-04-01T03:44:09.924Z,16.08
2017-04-01T03:44:31.687Z,15.93
2017-04-01T03:44:53.486Z,15.81
2017-04-01T03:45:15.284Z,15.69
2017-04-01T03:45:37.207Z,15.72
2017-04-01T03:45:58.943Z,15.74
2017-04-01T03:46:23.751Z,15.85
2017-04-01T03:46:45.454Z,15.78
2017-04-01T03:47:07.159Z,15.77
2017-04-01T03:47:28.860Z,15.73
2017-04-01T03:47:50.940Z,15.70
2017-04-01T03:48:12.693Z,15.74
2017-04-01T03:48:34.404Z,15.85
2017-04-01T03:48:56.149Z,15.90
2017-04-01T03:49:17.864Z,15.81
2017-04-01T03:49:39.643Z,15.75
2017-04-01T03:50:01.548Z,15.74
2017-04-01T03:50:23.192Z,15.65
2017-04-01T03:50:44.913Z,15.74
2017-04-01T03:51:06.673Z,15.86
2017-04-01T03:51:28.485Z,15.95
2017-04-01T03:51:50.247Z,16.02
2017-04-01T03:52:11.946Z,15.99
2017-04-01T03:52:33.649Z,16.04
2017-04-01T03:52:55.400Z,16.10
2017-04-01T03:53:17.233Z,15.94
2017-04-01T03:53:39.051Z,15.81
2017-04-01T03:54:00.941Z,15.75
2017-04-01T03:54:22.667Z,15.73
2017-04-01T03:54:44.397Z,15.80
2017-04-01T03:55:06.170Z,15.82
2017-04-01T03:55:27.938Z,15.85
2017-04-01T03:55:49.674Z,15.84
2017-04-01T03:56:11.430Z,15.82
2017-04-01T03:56:33.202Z,15.79
2017-04-01T03:56:54.980Z,15.77
2017-04-01T03:57:16.668Z,15.77
2017-04-01T03:57:38.393Z,15.64
2017-04-01T03:58:00.217Z,15.60
2017-04-01T03:58:21.899Z,15.72
2017-04-01T03:58:43.733Z,15.79
2017-04-01T03:59:05.478Z,15.91
2017-04-01T03:59:27.220Z,15.95
2017-04-01T03:59:49.029Z,15.95
2017-04-01T04:00:10.870Z,15.93
2017-04-01T04:00:32.620Z,15.84
2017-04-01T04:00:54.434Z,15.86
2017-04-01T04:01:16.185Z,15.92
2017-04-01T04:01:37.978Z,15.90
2017-04-01T04:01:59.714Z,15.89
2017-04-01T04:02:21.513Z,15.91
2017-04-01T04:02:43.265Z,15.94
2017-04-01T04:03:05.005Z,15.95
2017-04-01T04:03:26.741Z,15.87
2017-04-01T04:03:48.545Z,15.88
2017-04-01T04:04:10.302Z,15.92
2017-04-01T04:04:32.025Z,15.88
2017-04-01T04:04:53.756Z,15.81
2017-04-01T04:05:15.872Z,15.73
2017-04-01T04:05:37.456Z,15.65
2017-04-01T04:05:59.190Z,15.64
2017-04-01T04:06:21.002Z,15.69
2017-04-01T04:06:42.761Z,15.69
2017-04-01T04:07:04.637Z,15.76
2017-04-01T04:07:26.394Z,15.79
2017-04-01T04:07:52.888Z,15.83
2017-04-01T04:08:14.590Z,15.77
2017-04-01T04:08:36.298Z,15.87
2017-04-01T04:08:58.031Z,15.91
2017-04-01T04:09:19.792Z,15.95
2017-04-01T04:09:41.608Z,16.01
2017-04-01T04:10:03.523Z,15.98
2017-04-01T04:10:25.282Z,15.93
2017-04-01T04:10:47.233Z,15.91
2017-04-01T04:11:08.981Z,15.96
2017-04-01T04:11:30.834Z,15.96
2017-04-01T04:11:57.217Z,15.87
2017-04-01T04:12:19.531Z,15.90
2017-04-01T04:12:41.263Z,15.84
2017-04-01T04:13:03.044Z,15.75
2017-04-01T04:13:24.801Z,15.80
2017-04-01T04:13:46.539Z,15.77
2017-04-01T04:14:08.410Z,15.72
2017-04-01T04:14:30.151Z,15.69
2017-04-01T04:14:51.942Z,15.59
2017-04-01T04:15:13.738Z,15.55
2017-04-01T04:16:02.140Z,15.80
2017-04-01T04:16:23.900Z,15.87
2017-04-01T04:16:45.637Z,15.84
2017-04-01T04:17:07.366Z,15.77
2017-04-01T04:17:29.098Z,15.70
2017-04-01T04:17:50.871Z,15.57
2017-04-01T04:18:12.622Z,15.54
2017-04-01T04:18:34.326Z,15.53
2017-04-01T04:18:56.040Z,15.60
2017-04-01T04:19:17.748Z,15.64
2017-04-01T04:19:39.454Z,15.73
2017-04-01T04:20:01.161Z,15.74
2017-04-01T04:20:22.964Z,15.80
2017-04-01T04:20:44.790Z,15.84
2017-04-01T04:21:06.554Z,15.81
2017-04-01T04:21:28.295Z,15.86
2017-04-01T04:21:50.153Z,15.81
2017-04-01T04:22:12.101Z,15.84
2017-04-01T04:22:36.817Z,15.89
2017-04-01T04:23:39.350Z,15.96
2017-04-01T04:24:01.511Z,15.93
2017-04-01T04:24:23.225Z,15.99
2017-04-01T04:24:44.934Z,15.94
2017-04-01T04:25:06.624Z,16.02
2017-04-01T04:25:28.322Z,16.05
2017-04-01T04:25:50.186Z,16.08
2017-04-01T04:26:11.974Z,16.14
2017-04-01T04:26:33.665Z,16.10
2017-04-01T04:26:55.404Z,16.09
2017-04-01T04:27:17.217Z,16.07
2017-04-01T04:27:38.897Z,15.95
2017-04-01T04:28:00.683Z,15.94
2017-04-01T04:28:22.686Z,15.94
2017-04-01T04:29:25.189Z,16.02
2017-04-01T04:29:46.938Z,16.03
2017-04-01T04:30:08.745Z,16.11
2017-04-01T04:30:30.535Z,16.13
2017-04-01T04:30:52.330Z,16.12
2017-04-01T04:31:14.908Z,15.94
2017-04-01T04:31:36.654Z,15.88
2017-04-01T04:31:58.618Z,15.84
2017-04-01T04:32:20.250Z,15.81
2017-04-01T04:32:42.103Z,15.76
2017-04-01T04:33:03.876Z,15.76
2017-04-01T04:33:25.783Z,15.84
2017-04-01T04:33:47.532Z,15.88
2017-04-01T04:34:09.357Z,15.75
2017-04-01T04:34:31.111Z,15.60
2017-04-01T04:34:55.724Z,15.58
2017-04-01T04:35:17.478Z,15.65
2017-04-01T04:35:39.319Z,15.60
2017-04-01T04:36:01.075Z,15.66
2017-04-01T04:36:22.893Z,15.73
2017-04-01T04:36:44.649Z,15.80
2017-04-01T04:37:07.394Z,15.87
2017-04-01T04:37:29.134Z,15.91
2017-04-01T04:37:50.911Z,15.90
2017-04-01T04:38:12.715Z,15.92
2017-04-01T04:38:34.503Z,15.94
2017-04-01T04:38:56.236Z,15.92
2017-04-01T04:39:17.998Z,15.94
2017-04-01T04:39:39.884Z,15.97
2017-04-01T04:40:01.799Z,16.01
2017-04-01T04:40:23.535Z,16.05
2017-04-01T04:40:45.316Z,15.99
2017-04-01T04:41:07.054Z,15.92
2017-04-01T04:41:33.616Z,15.76
2017-04-01T04:41:55.410Z,15.70
2017-04-01T04:42:17.176Z,15.71
2017-04-01T04:42:38.895Z,15.73
2017-04-01T04:43:00.785Z,15.76
2017-04-01T04:43:22.609Z,15.72
2017-04-01T04:43:44.334Z,15.80
2017-04-01T04:44:06.070Z,15.83
2017-04-01T04:44:27.799Z,15.85
2017-04-01T04:44:49.542Z,15.82
2017-04-01T04:45:11.361Z,15.58
2017-04-01T04:45:33.082Z,15.58
2017-04-01T04:45:54.976Z,15.56
2017-04-01T04:46:16.857Z,15.67
2017-04-01T04:47:19.539Z,15.83
2017-04-01T04:47:41.346Z,15.85
2017-04-01T04:48:03.163Z,15.91
2017-04-01T04:48:29.803Z,15.87
2017-04-01T04:48:51.616Z,15.74
2017-04-01T04:49:13.373Z,15.78
2017-04-01T04:49:35.178Z,15.67
2017-04-01T04:49:57.207Z,15.67
2017-04-01T04:50:19.100Z,15.63
2017-04-01T04:50:41.902Z,15.51
2017-04-01T04:51:03.706Z,15.56
2017-04-01T04:51:25.549Z,15.59
2017-04-01T04:51:47.453Z,15.59
2017-04-01T04:52:09.353Z,15.64
2017-04-01T04:52:31.091Z,15.71
2017-04-01T04:52:52.895Z,15.80
2017-04-01T04:53:14.660Z,15.80
2017-04-01T04:53:36.408Z,15.78
2017-04-01T04:53:58.152Z,15.76
2017-04-01T04:54:27.404Z,15.67
2017-04-01T04:54:49.226Z,15.66
2017-04-01T04:55:11.011Z,15.64
2017-04-01T04:55:32.899Z,15.69
2017-04-01T04:55:54.646Z,15.69
2017-04-01T04:56:16.509Z,15.72
2017-04-01T04:56:38.249Z,15.74
2017-04-01T04:56:59.978Z,15.74
2017-04-01T04:57:21.760Z,15.73
2017-04-01T04:57:43.502Z,15.64
2017-04-01T04:58:05.264Z,15.47
2017-04-01T04:58:27.016Z,15.47
2017-04-01T04:58:48.789Z,15.48
2017-04-01T04:59:10.566Z,15.47
2017-04-01T04:59:32.340Z,15.51
2017-04-01T04:59:54.127Z,15.57
2017-04-01T05:00:15.857Z,15.62
2017-04-01T05:00:37.606Z,15.59
2017-04-01T05:00:59.357Z,15.64
2017-04-01T05:01:21.124Z,15.57
2017-04-01T05:01:43.008Z,15.55
2017-04-01T05:02:04.863Z,15.59
2017-04-01T05:02:26.597Z,15.51
2017-04-01T05:02:48.374Z,15.62
2017-04-01T05:03:10.197Z,15.62
2017-04-01T05:03:31.993Z,15.53
2017-04-01T05:03:53.944Z,15.47
2017-04-01T05:04:15.870Z,15.52
2017-04-01T05:04:37.673Z,15.56
2017-04-01T05:04:59.414Z,15.62